createdAt,value
2022-09-14T00:01:27.606Z,16.10
2022-09-14T00:04:16.455Z,16.10
2022-09-14T00:06:43.693Z,16.10
2022-09-14T00:09:29.283Z,16.10
2022-09-14T00:11:56.438Z,16.00
2022-09-14T00:14:23.479Z,16.00
2022-09-14T00:16:52.126Z,16.00
2022-09-14T00:19:25.797Z,16.00
2022-09-14T00:21:55.615Z,15.90
2022-09-14T00:24:23.529Z,15.90
2022-09-14T00:26:51.276Z,15.80
2022-09-14T00:29:18.389Z,15.80
2022-09-14T00:31:45.683Z,15.80
2022-09-14T00:34:15.250Z,15.80
2022-09-14T00:36:45.390Z,15.70
2022-09-14T00:39:13.387Z,15.70
2022-09-14T00:41:43.788Z,15.70
2022-09-14T00:44:11.205Z,15.60
2022-09-14T00:46:50.609Z,15.60
2022-09-14T00:49:23.354Z,15.60
2022-09-14T00:51:59.037Z,15.50
2022-09-14T00:54:26.622Z,15.50
2022-09-14T00:56:54.899Z,15.40
2022-09-14T00:59:29.504Z,15.50
2022-09-14T01:01:56.525Z,15.60
2022-09-14T01:04:24.276Z,15.60
2022-09-14T01:07:00.362Z,15.60
2022-09-14T01:09:46.456Z,15.40
2022-09-14T01:12:25.010Z,15.30
2022-09-14T01:14:59.516Z,15.20
2022-09-14T01:17:51.348Z,15.20
2022-09-14T01:20:21.199Z,15.10
2022-09-14T01:23:10.134Z,15.00
2022-09-14T01:25:40.034Z,15.00
2022-09-14T01:28:23.171Z,15.10
2022-09-14T01:30:54.339Z,15.10
2022-09-14T01:33:48.484Z,15.20
2022-09-14T01:36:16.339Z,15.10
2022-09-14T01:38:50.680Z,15.10
2022-09-14T01:41:22.595Z,15.00
2022-09-14T01:43:58.012Z,15.00
2022-09-14T01:46:31.896Z,15.00
2022-09-14T01:49:02.482Z,15.00
2022-09-14T01:51:55.059Z,15.00
2022-09-14T01:54:43.187Z,14.90
2022-09-14T01:57:17.931Z,14.90
2022-09-14T01:59:46.735Z,14.90
2022-09-14T02:02:24.972Z,15.00
2022-09-14T02:05:01.310Z,15.00
2022-09-14T02:07:28.447Z,15.00
2022-09-14T02:09:56.596Z,15.00
2022-09-14T02:12:23.899Z,14.90
2022-09-14T02:14:52.847Z,14.90
2022-09-14T02:17:20.637Z,14.90
2022-09-14T02:19:54.772Z,14.90
2022-09-14T02:22:21.749Z,14.80
2022-09-14T02:24:49.584Z,14.80
2022-09-14T02:27:16.655Z,14.80
2022-09-14T02:29:43.675Z,14.70
2022-09-14T02:32:40.679Z,14.70
2022-09-14T02:35:19.484Z,14.70
2022-09-14T02:38:20.472Z,14.60
2022-09-14T02:40:50.414Z,14.70
2022-09-14T02:43:54.396Z,14.70
2022-09-14T02:46:21.287Z,14.60
2022-09-14T02:49:12.503Z,14.60
2022-09-14T02:51:54.369Z,14.60
2022-09-14T02:54:29.315Z,14.50
2022-09-14T02:57:00.624Z,14.50
2022-09-14T02:59:27.766Z,14.50
2022-09-14T03:01:55.958Z,14.50
2022-09-14T03:04:23.150Z,14.50
2022-09-14T03:06:50.266Z,14.50
2022-09-14T03:09:17.257Z,14.50
2022-09-14T03:11:44.176Z,14.50
2022-09-14T03:14:11.877Z,14.50
2022-09-14T03:16:39.579Z,14.50
2022-09-14T03:19:06.749Z,14.40
2022-09-14T03:21:33.943Z,14.40
2022-09-14T03:24:00.912Z,14.30
2022-09-14T03:26:29.791Z,14.30
2022-09-14T03:28:59.445Z,14.30
2022-09-14T03:31:27.124Z,14.30
2022-09-14T03:33:56.560Z,14.20
2022-09-14T03:36:24.654Z,14.20
2022-09-14T03:38:54.203Z,14.20
2022-09-14T03:41:22.514Z,14.20
2022-09-14T03:43:49.893Z,14.30
2022-09-14T03:46:22.148Z,14.30
2022-09-14T03:48:49.688Z,14.30
2022-09-14T03:51:16.752Z,14.20
2022-09-14T03:53:45.272Z,14.20
2022-09-14T03:56:20.933Z,14.20
2022-09-14T03:58:49.037Z,14.10
2022-09-14T04:01:19.516Z,14.20
2022-09-14T04:03:47.286Z,14.20
2022-09-14T04:06:16.150Z,14.20
2022-09-14T04:08:44.574Z,14.20
2022-09-14T04:11:20.622Z,14.20
2022-09-14T04:13:48.467Z,14.30
2022-09-14T04:16:16.683Z,14.40
2022-09-14T04:18:44.417Z,14.50
2022-09-14T04:21:15.218Z,14.50
2022-09-14T04:24:10.103Z,14.50
2022-09-14T04:26:30.989Z,14.50
2022-09-14T04:28:58.382Z,14.50
2022-09-14T04:31:26.333Z,14.50
2022-09-14T04:33:56.489Z,14.50
2022-09-14T04:36:28.630Z,14.50
2022-09-14T04:38:57.919Z,14.60
2022-09-14T04:41:25.244Z,14.50
2022-09-14T04:43:53.029Z,14.50
2022-09-14T04:46:22.372Z,14.50
2022-09-14T04:48:50.537Z,14.60
2022-09-14T04:51:23.575Z,14.70
2022-09-14T04:53:53.253Z,14.70
2022-09-14T04:56:24.672Z,14.80
2022-09-14T04:58:56.422Z,14.70
2022-09-14T05:01:26.445Z,14.70
2022-09-14T05:03:54.432Z,14.90
2022-09-14T05:06:24.325Z,14.90
2022-09-14T05:08:52.651Z,14.90
2022-09-14T05:11:26.566Z,15.00
2022-09-14T05:13:55.210Z,15.20
2022-09-14T05:16:26.465Z,15.30
2022-09-14T05:19:01.400Z,15.40
2022-09-14T05:21:29.722Z,15.60
2022-09-14T05:23:58.899Z,15.70
2022-09-14T05:26:27.991Z,15.90
2022-09-14T05:28:56.866Z,16.10
2022-09-14T05:31:25.169Z,16.30
2022-09-14T05:33:53.161Z,16.50
2022-09-14T05:36:20.493Z,16.70
2022-09-14T05:38:47.653Z,16.80
2022-09-14T05:41:16.155Z,16.80
2022-09-14T05:43:43.253Z,16.90
2022-09-14T05:46:14.412Z,16.90
2022-09-14T05:48:41.815Z,17.00
2022-09-14T05:51:15.894Z,17.00
2022-09-14T05:53:47.000Z,17.20
2022-09-14T05:56:14.829Z,17.40
2022-09-14T05:58:42.899Z,17.50
2022-09-14T06:01:16.267Z,17.70
2022-09-14T06:03:43.973Z,17.90
2022-09-14T06:06:13.006Z,18.00
2022-09-14T06:08:41.047Z,18.20
2022-09-14T06:11:10.696Z,18.40
2022-09-14T06:13:38.001Z,18.60
2022-09-14T06:16:06.926Z,18.80
2022-09-14T06:18:35.473Z,18.80
2022-09-14T06:21:03.813Z,18.90
2022-09-14T06:23:31.685Z,19.10
2022-09-14T06:26:03.738Z,19.00
2022-09-14T06:28:31.814Z,19.30
2022-09-14T06:30:58.808Z,19.40
2022-09-14T06:33:26.286Z,19.50
2022-09-14T06:35:57.931Z,19.30
2022-09-14T06:38:25.473Z,19.40
2022-09-14T06:40:59.761Z,19.40
2022-09-14T06:43:28.433Z,19.70
2022-09-14T06:46:11.715Z,19.90
2022-09-14T06:48:41.333Z,20.00
2022-09-14T06:51:23.246Z,20.20
2022-09-14T06:53:50.867Z,20.30
2022-09-14T06:56:18.941Z,20.50
2022-09-14T06:58:46.072Z,20.60
2022-09-14T07:01:15.761Z,20.90
2022-09-14T07:03:44.155Z,20.90
2022-09-14T07:06:17.807Z,21.10
2022-09-14T07:08:45.675Z,21.00
2022-09-14T07:11:14.276Z,21.30
2022-09-14T07:13:41.543Z,21.50
2022-09-14T07:16:08.805Z,21.50
2022-09-14T07:18:36.463Z,21.60
2022-09-14T07:21:09.761Z,21.70
2022-09-14T07:23:39.099Z,21.90
2022-09-14T07:26:08.884Z,22.10
2022-09-14T07:28:36.982Z,22.40
2022-09-14T07:31:05.719Z,22.40
2022-09-14T07:33:33.786Z,22.70
2022-09-14T07:36:11.689Z,22.70
2022-09-14T07:38:52.121Z,22.70
2022-09-14T07:41:23.994Z,23.00
2022-09-14T07:43:52.634Z,23.20
2022-09-14T07:46:20.547Z,23.70
2022-09-14T07:48:49.012Z,24.20
2022-09-14T07:51:16.095Z,24.60
2022-09-14T07:53:43.875Z,24.90
2022-09-14T07:56:12.190Z,25.10
2022-09-14T07:58:39.638Z,25.40
2022-09-14T08:01:09.278Z,25.90
2022-09-14T08:03:36.456Z,26.10
2022-09-14T08:06:05.969Z,26.60
2022-09-14T08:08:36.214Z,26.40
2022-09-14T08:11:32.319Z,26.60
2022-09-14T08:14:01.411Z,26.70
2022-09-14T08:16:30.359Z,27.10
2022-09-14T08:19:00.610Z,27.40
2022-09-14T08:21:30.161Z,27.40
2022-09-14T08:23:58.081Z,27.10
2022-09-14T08:26:26.569Z,27.10
2022-09-14T08:28:54.829Z,27.10
2022-09-14T08:31:28.612Z,26.90
2022-09-14T08:34:01.230Z,27.00
2022-09-14T08:36:32.904Z,27.30
2022-09-14T08:39:00.800Z,27.70
2022-09-14T08:41:29.202Z,28.20
2022-09-14T08:44:22.994Z,28.40
2022-09-14T08:47:04.393Z,28.80
2022-09-14T08:49:37.811Z,29.30
2022-09-14T08:52:05.973Z,29.60
2022-09-14T08:54:33.435Z,30.00
2022-09-14T08:57:13.071Z,30.10
2022-09-14T09:00:09.681Z,29.90
2022-09-14T09:02:59.548Z,30.00
2022-09-14T09:05:54.505Z,29.70
2022-09-14T09:08:40.187Z,29.50
2022-09-14T09:11:15.384Z,29.10
2022-09-14T09:13:44.239Z,29.10
2022-09-14T09:16:13.447Z,29.00
2022-09-14T09:18:44.812Z,29.00
2022-09-14T09:21:19.486Z,29.00
2022-09-14T09:23:46.929Z,29.00
2022-09-14T09:26:26.055Z,29.00
2022-09-14T09:28:58.297Z,28.90
2022-09-14T09:31:44.298Z,28.90
2022-09-14T09:34:16.052Z,29.10
2022-09-14T09:36:51.944Z,29.20
2022-09-14T09:39:19.404Z,29.30
2022-09-14T09:41:53.023Z,29.30
2022-09-14T09:44:20.568Z,29.40
2022-09-14T09:46:59.769Z,29.20
2022-09-14T09:49:35.121Z,29.20
2022-09-14T09:52:16.408Z,29.40
2022-09-14T09:54:51.077Z,29.50
2022-09-14T09:57:35.983Z,29.80
2022-09-14T10:00:21.878Z,30.00
2022-09-14T10:02:49.561Z,29.90
2022-09-14T10:05:31.839Z,29.60
2022-09-14T10:08:01.185Z,29.60
2022-09-14T10:10:39.831Z,29.80
2022-09-14T10:13:20.459Z,29.80
2022-09-14T10:15:49.271Z,29.90
2022-09-14T10:18:20.248Z,29.90
2022-09-14T10:20:53.052Z,29.90
2022-09-14T10:23:19.897Z,29.90
2022-09-14T10:25:52.388Z,30.20
2022-09-14T10:28:22.146Z,30.70
2022-09-14T10:30:59.796Z,31.30
2022-09-14T10:33:26.870Z,31.60
2022-09-14T10:35:56.899Z,31.60
2022-09-14T10:38:36.722Z,31.30
2022-09-14T10:41:23.351Z,31.20
2022-09-14T10:44:19.706Z,31.10
2022-09-14T10:47:04.691Z,30.70
2022-09-14T10:49:41.259Z,30.50
2022-09-14T10:52:27.029Z,30.30
2022-09-14T10:55:18.911Z,30.10
2022-09-14T10:57:45.710Z,30.30
2022-09-14T11:00:21.088Z,30.30
2022-09-14T11:02:56.139Z,30.20
2022-09-14T11:05:31.405Z,30.00
2022-09-14T11:08:19.037Z,29.70
2022-09-14T11:11:09.337Z,29.40
2022-09-14T11:13:52.958Z,29.80
2022-09-14T11:16:36.861Z,30.10
2022-09-14T11:19:35.499Z,30.00
2022-09-14T11:22:22.633Z,30.30
2022-09-14T11:24:54.375Z,30.50
2022-09-14T11:27:27.144Z,30.50
2022-09-14T11:30:16.744Z,30.60
2022-09-14T11:32:56.027Z,30.90
2022-09-14T11:35:36.517Z,30.80
2022-09-14T11:38:28.195Z,30.90
2022-09-14T11:41:01.370Z,30.70
2022-09-14T11:43:43.048Z,30.60
2022-09-14T11:46:15.043Z,30.70
2022-09-14T11:49:29.976Z,30.70
2022-09-14T11:52:20.998Z,30.60
2022-09-14T11:54:51.986Z,30.10
2022-09-14T11:57:26.028Z,30.10
2022-09-14T11:59:55.583Z,30.30
2022-09-14T12:02:25.925Z,30.60
2022-09-14T12:05:06.783Z,30.70
2022-09-14T12:07:42.603Z,31.00
2022-09-14T12:10:15.727Z,31.20
2022-09-14T12:12:51.320Z,31.10
2022-09-14T12:15:29.793Z,30.90
2022-09-14T12:18:05.663Z,30.90
2022-09-14T12:20:41.023Z,30.60
2022-09-14T12:23:21.183Z,30.50
2022-09-14T12:26:06.546Z,30.50
2022-09-14T12:28:36.239Z,30.50
2022-09-14T12:31:03.131Z,30.40
2022-09-14T12:33:33.714Z,30.50
2022-09-14T12:36:33.773Z,30.50
2022-09-14T12:39:19.972Z,30.60
2022-09-14T12:41:46.866Z,30.90
2022-09-14T12:44:34.094Z,31.10
2022-09-14T12:47:25.843Z,31.20
2022-09-14T12:49:54.360Z,31.20
2022-09-14T12:52:34.947Z,31.30
2022-09-14T12:55:17.218Z,31.10
2022-09-14T12:57:56.479Z,31.30
2022-09-14T13:00:23.485Z,31.50
2022-09-14T13:03:02.443Z,31.70
2022-09-14T13:05:32.549Z,31.80
2022-09-14T13:07:59.797Z,32.00
2022-09-14T13:10:33.754Z,31.90
2022-09-14T13:13:08.618Z,31.70
2022-09-14T13:15:45.406Z,31.80
2022-09-14T13:18:18.524Z,31.90
2022-09-14T13:20:57.736Z,31.90
2022-09-14T13:23:36.459Z,31.80
2022-09-14T13:26:16.482Z,31.70
2022-09-14T13:28:46.626Z,31.70
2022-09-14T13:31:18.493Z,31.50
2022-09-14T13:33:54.384Z,31.20
2022-09-14T13:36:28.000Z,31.20
2022-09-14T13:38:58.496Z,31.20
2022-09-14T13:41:25.886Z,31.10
2022-09-14T13:43:54.706Z,30.90
2022-09-14T13:46:24.262Z,30.80
2022-09-14T13:48:52.471Z,31.00
2022-09-14T13:51:25.058Z,31.00
2022-09-14T13:53:57.752Z,31.10
2022-09-14T13:56:26.947Z,31.00
2022-09-14T13:59:12.094Z,31.10
2022-09-14T14:01:46.560Z,31.10
2022-09-14T14:04:34.902Z,31.00
2022-09-14T14:07:07.084Z,30.80
2022-09-14T14:09:53.552Z,30.60
2022-09-14T14:12:37.017Z,30.40
2022-09-14T14:15:12.310Z,30.20
2022-09-14T14:17:41.569Z,30.10
2022-09-14T14:20:37.919Z,30.20
2022-09-14T14:23:10.940Z,30.60
2022-09-14T14:25:46.191Z,30.50
2022-09-14T14:28:23.862Z,30.50
2022-09-14T14:30:51.577Z,30.50
2022-09-14T14:33:19.333Z,30.50
2022-09-14T14:35:48.864Z,30.40
2022-09-14T14:38:16.381Z,30.50
2022-09-14T14:40:44.885Z,30.40
2022-09-14T14:43:25.062Z,30.50
2022-09-14T14:45:59.123Z,30.50
2022-09-14T14:48:27.788Z,30.30
2022-09-14T14:50:55.834Z,30.40
2022-09-14T14:53:26.243Z,30.40
2022-09-14T14:55:53.452Z,30.30
2022-09-14T14:58:22.163Z,30.30
2022-09-14T15:00:49.818Z,30.00
2022-09-14T15:03:19.027Z,29.80
2022-09-14T15:05:47.104Z,29.80
2022-09-14T15:08:17.360Z,29.50
2022-09-14T15:10:44.407Z,29.30
2022-09-14T15:13:12.670Z,29.30
2022-09-14T15:15:45.640Z,29.20
2022-09-14T15:18:12.722Z,29.10
2022-09-14T15:20:39.802Z,29.10
2022-09-14T15:23:06.730Z,29.00
2022-09-14T15:25:33.748Z,29.00
2022-09-14T15:28:00.675Z,28.90
2022-09-14T15:30:27.591Z,28.90
2022-09-14T15:32:55.042Z,28.80
2022-09-14T15:35:22.157Z,28.60
2022-09-14T15:37:49.026Z,28.60
2022-09-14T15:40:16.279Z,28.30
2022-09-14T15:42:43.259Z,28.20
2022-09-14T15:45:10.801Z,28.10
2022-09-14T15:47:42.473Z,28.00
2022-09-14T15:50:10.782Z,27.90
2022-09-14T15:52:39.009Z,27.80
2022-09-14T15:55:07.612Z,27.70
2022-09-14T15:57:34.678Z,27.60
2022-09-14T16:00:03.434Z,27.50
2022-09-14T16:02:30.366Z,27.40
2022-09-14T16:04:57.228Z,27.30
2022-09-14T16:07:24.470Z,27.20
2022-09-14T16:09:51.390Z,27.10
2022-09-14T16:12:18.408Z,27.00
2022-09-14T16:14:45.298Z,26.90
2022-09-14T16:17:12.297Z,26.80
2022-09-14T16:19:39.218Z,26.80
2022-09-14T16:22:06.306Z,26.70
2022-09-14T16:24:38.546Z,26.70
2022-09-14T16:27:05.573Z,26.60
2022-09-14T16:29:32.471Z,26.50
2022-09-14T16:31:59.496Z,26.50
2022-09-14T16:34:29.016Z,26.50
2022-09-14T16:36:58.840Z,26.40
2022-09-14T16:39:28.840Z,26.40
2022-09-14T16:41:56.170Z,26.30
2022-09-14T16:44:26.726Z,26.30
2022-09-14T16:46:57.668Z,26.30
2022-09-14T16:49:27.883Z,26.30
2022-09-14T16:51:56.368Z,26.20
2022-09-14T16:54:25.535Z,26.10
2022-09-14T16:56:56.316Z,26.10
2022-09-14T16:59:23.436Z,26.00
2022-09-14T17:01:54.727Z,25.90
2022-09-14T17:04:22.875Z,26.00
2022-09-14T17:06:51.866Z,26.00
2022-09-14T17:09:25.526Z,25.90
2022-09-14T17:11:54.316Z,25.90
2022-09-14T17:14:25.050Z,25.90
2022-09-14T17:16:52.642Z,25.90
2022-09-14T17:19:20.042Z,25.90
2022-09-14T17:21:48.379Z,25.90
2022-09-14T17:24:16.770Z,25.80
2022-09-14T17:26:44.355Z,25.80
2022-09-14T17:29:12.279Z,25.70
2022-09-14T17:31:41.357Z,25.70
2022-09-14T17:34:10.497Z,25.70
2022-09-14T17:36:38.316Z,25.80
2022-09-14T17:39:11.378Z,25.70
2022-09-14T17:41:39.715Z,25.70
2022-09-14T17:44:08.093Z,25.70
2022-09-14T17:46:39.766Z,25.70
2022-09-14T17:49:13.729Z,25.70
2022-09-14T17:51:40.965Z,25.70
2022-09-14T17:54:08.089Z,25.60
2022-09-14T17:56:35.248Z,25.60
2022-09-14T17:59:14.253Z,25.60
2022-09-14T18:01:41.484Z,25.70
2022-09-14T18:04:10.860Z,25.60
2022-09-14T18:06:46.248Z,25.60
2022-09-14T18:09:17.237Z,25.60
2022-09-14T18:11:45.358Z,25.60
2022-09-14T18:14:15.825Z,25.60
2022-09-14T18:16:44.143Z,25.60
2022-09-14T18:19:11.379Z,25.50
2022-09-14T18:21:38.547Z,25.40
2022-09-14T18:24:05.622Z,25.40
2022-09-14T18:26:33.112Z,25.40
2022-09-14T18:29:00.611Z,25.30
2022-09-14T18:31:28.076Z,25.30
2022-09-14T18:33:59.395Z,25.30
2022-09-14T18:36:29.264Z,25.30
2022-09-14T18:38:57.592Z,25.40
2022-09-14T18:41:24.577Z,25.40
2022-09-14T18:43:53.388Z,25.40
2022-09-14T18:46:24.467Z,25.40
2022-09-14T18:48:56.459Z,25.40
2022-09-14T18:51:23.598Z,25.30
2022-09-14T18:54:00.142Z,25.30
2022-09-14T18:56:28.101Z,25.30
2022-09-14T18:58:55.664Z,25.30
2022-09-14T19:01:22.810Z,25.30
2022-09-14T19:03:50.200Z,25.30
2022-09-14T19:06:19.829Z,25.30
2022-09-14T19:08:47.442Z,25.30
2022-09-14T19:11:19.011Z,25.30
2022-09-14T19:13:47.133Z,25.20
2022-09-14T19:16:17.569Z,25.20
2022-09-14T19:18:49.833Z,25.10
2022-09-14T19:21:21.640Z,25.00
2022-09-14T19:23:57.377Z,25.10
2022-09-14T19:26:24.463Z,25.00
2022-09-14T19:28:51.476Z,25.00
2022-09-14T19:31:21.131Z,25.00
2022-09-14T19:33:48.430Z,24.90
2022-09-14T19:36:20.049Z,24.80
2022-09-14T19:38:48.721Z,24.70
2022-09-14T19:41:16.488Z,24.90
2022-09-14T19:43:44.285Z,24.90
2022-09-14T19:46:15.092Z,25.00
2022-09-14T19:48:42.784Z,25.00
2022-09-14T19:51:18.750Z,24.90
2022-09-14T19:53:50.608Z,24.80
2022-09-14T19:56:21.315Z,24.70
2022-09-14T19:58:51.185Z,24.70
2022-09-14T20:01:20.383Z,24.60
2022-09-14T20:03:48.823Z,24.50
2022-09-14T20:06:23.603Z,24.60
2022-09-14T20:09:12.571Z,24.50
2022-09-14T20:11:40.860Z,24.50
2022-09-14T20:14:10.845Z,24.50
2022-09-14T20:16:40.531Z,24.50
2022-09-14T20:19:28.948Z,24.40
2022-09-14T20:21:56.432Z,24.30
2022-09-14T20:24:26.450Z,24.30
2022-09-14T20:26:59.494Z,24.20
2022-09-14T20:29:31.431Z,24.10
2022-09-14T20:31:59.383Z,24.10
2022-09-14T20:34:26.694Z,24.00
2022-09-14T20:36:54.307Z,23.90
2022-09-14T20:39:22.792Z,23.90
2022-09-14T20:41:53.245Z,23.90
2022-09-14T20:44:22.473Z,23.90
2022-09-14T20:46:50.696Z,24.00
2022-09-14T20:49:20.878Z,24.10
2022-09-14T20:51:47.909Z,24.30
2022-09-14T20:54:17.398Z,24.50
2022-09-14T20:56:46.198Z,24.50
2022-09-14T20:59:15.690Z,24.50
2022-09-14T21:01:45.025Z,24.50
2022-09-14T21:04:17.761Z,24.60
2022-09-14T21:06:47.358Z,24.60
2022-09-14T21:09:16.341Z,24.70
2022-09-14T21:11:45.823Z,24.90
2022-09-14T21:14:17.945Z,25.00
2022-09-14T21:16:47.053Z,25.00
2022-09-14T21:19:19.603Z,25.00
2022-09-14T21:21:47.934Z,25.10
2022-09-14T21:24:15.990Z,25.20
2022-09-14T21:26:44.204Z,25.10
2022-09-14T21:29:14.890Z,25.10
2022-09-14T21:31:42.113Z,25.10
2022-09-14T21:34:10.390Z,25.10
2022-09-14T21:36:43.566Z,25.00
2022-09-14T21:39:16.004Z,25.10
2022-09-14T21:41:44.929Z,25.10
2022-09-14T21:44:13.416Z,25.10
2022-09-14T21:46:41.077Z,25.00
2022-09-14T21:49:12.703Z,24.90
2022-09-14T21:51:40.111Z,24.90
2022-09-14T21:54:09.478Z,24.90
2022-09-14T21:56:38.775Z,24.90
2022-09-14T21:59:17.844Z,24.90
2022-09-14T22:01:45.077Z,24.80
2022-09-14T22:04:20.400Z,24.70
2022-09-14T22:06:53.985Z,24.80
2022-09-14T22:09:24.285Z,25.00
2022-09-14T22:11:51.425Z,24.90
2022-09-14T22:14:21.089Z,25.00
2022-09-14T22:16:49.250Z,25.00
2022-09-14T22:19:21.004Z,25.00
2022-09-14T22:21:48.607Z,25.10
2022-09-14T22:24:23.658Z,25.10
2022-09-14T22:26:50.793Z,25.00
2022-09-14T22:29:18.738Z,24.80
2022-09-14T22:31:46.359Z,24.50
2022-09-14T22:34:14.199Z,24.30
2022-09-14T22:36:41.779Z,24.10
2022-09-14T22:39:09.926Z,23.90
2022-09-14T22:41:37.789Z,23.70
2022-09-14T22:44:05.562Z,23.60
2022-09-14T22:46:33.308Z,23.50
2022-09-14T22:49:00.358Z,23.40
2022-09-14T22:51:28.683Z,23.40
2022-09-14T22:53:56.788Z,23.30
2022-09-14T22:56:25.279Z,23.20
2022-09-14T22:58:53.014Z,23.10
2022-09-14T23:01:25.881Z,23.00
2022-09-14T23:03:58.560Z,22.90
2022-09-14T23:06:30.951Z,22.90
2022-09-14T23:08:58.187Z,22.90
2022-09-14T23:11:25.068Z,23.10
2022-09-14T23:13:52.043Z,23.10
2022-09-14T23:16:26.153Z,23.30
2022-09-14T23:18:55.915Z,23.40
2022-09-14T23:21:23.394Z,23.50
2022-09-14T23:23:59.791Z,23.50
2022-09-14T23:26:28.144Z,23.50
2022-09-14T23:29:09.522Z,23.30
2022-09-14T23:31:36.647Z,23.20
2022-09-14T23:34:04.731Z,23.20
2022-09-14T23:36:31.994Z,23.10
2022-09-14T23:38:59.026Z,23.10
2022-09-14T23:41:27.340Z,23.10
2022-09-14T23:43:54.957Z,23.00
2022-09-14T23:46:23.146Z,23.00
2022-09-14T23:48:50.435Z,23.00
2022-09-14T23:51:17.707Z,22.90
2022-09-14T23:53:44.828Z,22.90
2022-09-14T23:56:12.229Z,23.00
2022-09-14T23:58:39.861Z,23.00
